Time;durP1;ratioP1;P1;durP2;ratioP2;P2;SDS_P1;SDS_P2;PMS_P1;PMS_P2;Temp;Humidity;BMP_temperature;BMP_pressure;BME280_temperature;BME280_humidity;BME280_pressure;Samples;Min_cycle;Max_cycle;Signal;HPM_P1;HPM_P2
2021/06/24 00:02:07;;;;;;;37.30;9.40;;;;;;;22.05;71.56;99697.55;1710726;82;21038;-64
2021/06/24 00:04:34;;;;;;;41.42;9.58;;;;;;;22.07;71.49;99693.06;1713150;82;20996;-65
2021/06/24 00:07:02;;;;;;;46.48;9.60;;;;;;;22.07;71.48;99695.83;1691570;83;21071;-64
2021/06/24 00:09:28;;;;;;;48.83;9.90;;;;;;;22.06;71.52;99693.63;1689674;83;21035;-64
2021/06/24 00:11:55;;;;;;;49.55;9.20;;;;;;;22.02;71.65;99691.33;1713609;82;21079;-64
2021/06/24 00:14:22;;;;;;;38.75;9.78;;;;;;;22.03;71.68;99692.95;1736602;82;21016;-64
2021/06/24 00:16:50;;;;;;;40.78;9.70;;;;;;;22.07;71.60;99688.90;1717912;82;21763;-64
2021/06/24 00:19:16;;;;;;;35.78;8.98;;;;;;;22.04;71.88;99682.64;1694387;84;21079;-64
2021/06/24 00:21:44;;;;;;;45.35;9.20;;;;;;;21.96;71.98;99690.53;1707035;82;21111;-64
2021/06/24 00:24:11;;;;;;;46.00;9.10;;;;;;;21.84;72.34;99689.92;1709832;84;21514;-65
2021/06/24 00:26:37;;;;;;;39.67;8.70;;;;;;;21.69;72.78;99692.00;1722605;82;21490;-64
2021/06/24 00:29:04;;;;;;;44.27;8.90;;;;;;;21.62;73.23;99693.16;1734682;82;21444;-65
2021/06/24 00:31:31;;;;;;;38.38;8.43;;;;;;;21.58;73.44;99688.07;1736256;82;21094;-65
2021/06/24 00:33:57;;;;;;;49.90;9.60;;;;;;;21.53;73.84;99691.89;1727642;82;21055;-65
2021/06/24 00:36:24;;;;;;;53.17;9.38;;;;;;;21.48;74.04;99689.34;1717826;82;20992;-64
2021/06/24 00:38:50;;;;;;;38.20;9.80;;;;;;;21.46;74.21;99684.73;1722886;82;21068;-64
2021/06/24 00:41:17;;;;;;;46.42;9.85;;;;;;;21.47;74.24;99678.63;1662479;86;21015;-64
2021/06/24 00:43:44;;;;;;;46.53;9.93;;;;;;;21.52;74.27;99682.53;1703855;82;21055;-64
2021/06/24 00:46:12;;;;;;;46.98;9.83;;;;;;;21.54;74.16;99680.25;1718714;82;20988;-64
2021/06/24 00:48:39;;;;;;;41.58;8.28;;;;;;;21.51;74.26;99680.91;1726908;82;21055;-64
2021/06/24 00:51:05;;;;;;;43.80;9.73;;;;;;;21.48;74.37;99678.84;1730973;82;21012;-63
2021/06/24 00:53:32;;;;;;;39.50;8.98;;;;;;;21.50;74.36;99679.31;1707374;82;21755;-63
2021/06/24 00:55:59;;;;;;;41.53;10.08;;;;;;;21.50;74.42;99679.31;1717375;82;20976;-64
2021/06/24 00:58:26;;;;;;;41.58;9.20;;;;;;;21.48;74.47;99675.50;1717266;82;21087;-64
2021/06/24 01:00:56;;;;;;;47.15;9.58;;;;;;;21.47;74.56;99670.32;1722994;82;21008;-64
2021/06/24 01:03:22;;;;;;;43.55;9.15;;;;;;;21.50;74.54;99679.31;1738907;82;21019;-64
2021/06/24 01:05:51;;;;;;;42.73;9.78;;;;;;;21.52;74.42;99688.08;1727683;82;20964;-64
2021/06/24 01:08:21;;;;;;;44.53;9.93;;;;;;;21.52;74.46;99681.96;1737049;82;21634;-64
2021/06/24 01:10:50;;;;;;;40.03;8.80;;;;;;;21.56;74.51;99683.47;1701146;82;21431;-64
2021/06/24 01:13:20;;;;;;;44.45;8.20;;;;;;;21.55;74.31;99677.11;1733267;82;21000;-64
2021/06/24 01:15:47;;;;;;;42.62;8.98;;;;;;;21.54;74.35;99681.03;1697026;83;21478;-64
2021/06/24 01:18:13;;;;;;;40.45;8.40;;;;;;;21.55;74.39;99681.27;1738214;82;21019;-64
2021/06/24 01:20:40;;;;;;;47.13;9.43;;;;;;;21.55;74.52;99678.50;1684172;85;21079;-64
2021/06/24 01:23:11;;;;;;;43.95;9.13;;;;;;;21.56;74.65;99689.00;1682911;85;21548;-64
2021/06/24 01:25:39;;;;;;;42.50;9.95;;;;;;;21.49;74.43;99686.81;1737221;82;21011;-64
2021/06/24 01:28:08;;;;;;;41.70;9.50;;;;;;;21.40;74.52;99688.08;1655723;85;21127;-63
2021/06/24 01:30:36;;;;;;;32.10;8.70;;;;;;;21.29;75.14;99684.35;1713545;82;20956;-63
2021/06/24 01:33:04;;;;;;;50.90;10.13;;;;;;;21.27;75.43;99682.52;1723370;83;21583;-63
2021/06/24 01:35:31;;;;;;;51.63;9.95;;;;;;;21.28;75.74;99688.86;1708461;82;20964;-63
2021/06/24 01:38:00;;;;;;;37.60;9.10;;;;;;;21.33;75.80;99690.82;1736580;81;21561;-63
2021/06/24 01:40:27;;;;;;;37.38;9.28;;;;;;;21.36;75.86;99699.04;1718895;82;21450;-63
2021/06/24 01:42:54;;;;;;;39.50;9.10;;;;;;;21.34;75.82;99697.98;1727860;82;21117;-63
2021/06/24 01:45:21;;;;;;;47.30;9.65;;;;;;;21.33;75.79;99696.36;1738967;82;20960;-63
2021/06/24 01:47:49;;;;;;;46.48;10.05;;;;;;;21.29;75.74;99697.41;1732805;82;21554;-63
2021/06/24 01:50:16;;;;;;;42.27;8.50;;;;;;;21.27;75.94;99700.52;1706731;82;21446;-63
2021/06/24 01:52:44;;;;;;;51.75;10.65;;;;;;;21.25;76.04;99693.14;1752641;82;21062;-63
2021/06/24 01:55:14;;;;;;;48.95;9.95;;;;;;;21.24;76.29;99695.66;1748812;81;21003;-63
2021/06/24 01:57:45;;;;;;;48.05;9.53;;;;;;;21.27;76.37;99694.16;1725310;82;21631;-63
2021/06/24 02:00:15;;;;;;;40.70;9.10;;;;;;;21.27;76.42;99693.59;1746480;82;21494;-63
2021/06/24 02:02:43;;;;;;;50.58;10.15;;;;;;;21.30;76.41;99705.93;1725376;82;21055;-62
2021/06/24 02:05:12;;;;;;;54.20;10.28;;;;;;;21.30;76.48;99703.97;1738878;82;20979;-62
2021/06/24 02:07:42;;;;;;;54.03;10.25;;;;;;;21.33;76.41;99704.66;1676678;83;21067;-61
2021/06/24 02:10:24;;;;;;;46.53;9.73;;;;;;;21.38;76.36;99705.59;1725178;82;20955;-62
2021/06/24 02:12:57;;;;;;;56.73;10.88;;;;;;;21.43;76.18;99704.81;1670835;85;21039;-62
2021/06/24 02:15:25;;;;;;;53.98;10.48;;;;;;;21.48;76.05;99701.80;1723496;82;20964;-62
2021/06/24 02:17:53;;;;;;;63.05;12.18;;;;;;;21.54;75.88;99705.17;1713407;82;21031;-62
2021/06/24 02:20:22;;;;;;;53.68;11.80;;;;;;;21.60;75.62;99705.17;1728091;82;20956;-62
2021/06/24 02:22:50;;;;;;;55.20;10.43;;;;;;;21.68;75.35;99700.10;1735019;82;21035;-62
2021/06/24 02:25:18;;;;;;;58.38;11.97;;;;;;;21.74;74.95;99698.70;1731060;82;20932;-62
2021/06/24 02:28:04;;;;;;;57.20;10.13;;;;;;;21.79;74.65;99707.58;1730380;82;21040;-62
2021/06/24 02:30:38;;;;;;;61.10;12.63;;;;;;;21.86;74.26;99705.61;1735326;82;20980;-62
2021/06/24 02:33:07;;;;;;;53.85;10.88;;;;;;;21.92;73.80;99705.66;1711114;83;21108;-62
2021/06/24 02:35:35;;;;;;;65.30;10.32;;;;;;;21.96;73.50;99712.13;1697013;82;20988;-62
2021/06/24 02:38:06;;;;;;;66.55;11.30;;;;;;;22.00;73.15;99702.54;1699162;84;21103;-63
2021/06/24 02:40:34;;;;;;;56.75;10.55;;;;;;;22.04;72.70;99708.41;1688405;84;21035;-62
2021/06/24 02:43:01;;;;;;;49.55;11.05;;;;;;;22.13;72.26;99724.92;1722881;82;21067;-63
2021/06/24 02:45:31;;;;;;;59.95;11.73;;;;;;;22.22;71.68;99722.24;1735573;82;20972;-63
2021/06/24 02:47:57;;;;;;;62.83;10.48;;;;;;;22.30;71.14;99728.81;1731151;82;21036;-63
2021/06/24 02:50:24;;;;;;;67.22;11.97;;;;;;;22.39;70.68;99726.70;1734061;82;21047;-64
2021/06/24 02:52:53;;;;;;;61.08;11.35;;;;;;;22.50;70.14;99727.02;1713596;82;21035;-63
2021/06/24 02:55:21;;;;;;;46.90;10.78;;;;;;;22.57;69.69;99726.66;1734232;82;21483;-63
2021/06/24 02:57:49;;;;;;;59.10;11.18;;;;;;;22.61;69.45;99725.38;1704229;82;21059;-63
2021/06/24 03:00:34;;;;;;;54.53;10.65;;;;;;;22.63;69.30;99725.27;1710174;82;21499;-62
2021/06/24 03:03:17;;;;;;;54.55;10.90;;;;;;;22.71;69.06;99720.16;1712228;82;21498;-62
2021/06/24 03:05:46;;;;;;;60.10;10.63;;;;;;;22.79;68.80;99717.83;1733238;82;21451;-62
2021/06/24 03:08:12;;;;;;;61.15;11.20;;;;;;;22.87;68.65;99713.87;1739181;82;21107;-64
2021/06/24 03:10:51;;;;;;;58.52;11.73;;;;;;;22.92;68.32;99710.84;1736429;82;21019;-64
2021/06/24 03:13:19;;;;;;;50.38;9.95;;;;;;;22.98;68.29;99706.07;1720770;82;21086;-64
2021/06/24 03:15:46;;;;;;;52.67;10.93;;;;;;;23.06;68.13;99712.02;1737252;82;21035;-64
2021/06/24 03:18:13;;;;;;;50.78;9.20;;;;;;;23.17;67.70;99707.56;1750811;82;21094;-63
2021/06/24 03:20:40;;;;;;;53.28;10.38;;;;;;;23.29;67.29;99717.23;1747280;82;21002;-64
2021/06/24 03:23:07;;;;;;;63.85;10.25;;;;;;;23.43;66.80;99707.09;1749085;82;21023;-64
2021/06/24 03:25:33;;;;;;;63.92;11.68;;;;;;;23.56;66.64;99711.39;1712926;82;21439;-64
2021/06/24 03:28:00;;;;;;;59.40;10.58;;;;;;;23.70;66.33;99707.57;1742818;82;21378;-65
2021/06/24 03:30:34;;;;;;;47.13;10.03;;;;;;;23.82;66.00;99708.06;1703905;82;21011;-63
2021/06/24 03:33:01;;;;;;;53.50;10.23;;;;;;;23.97;65.56;99711.41;1711418;82;21035;-63
2021/06/24 03:35:29;;;;;;;53.80;10.90;;;;;;;24.13;64.81;99710.00;1742273;82;20960;-64
2021/06/24 03:37:57;;;;;;;51.28;10.08;;;;;;;24.25;64.32;99705.14;1750814;81;21635;-64
2021/06/24 03:40:23;;;;;;;49.58;9.98;;;;;;;24.37;64.13;99698.66;1753349;82;21552;-64
2021/06/24 03:42:52;;;;;;;49.23;10.28;;;;;;;24.53;63.38;99698.57;1748131;82;21088;-64
2021/06/24 03:45:18;;;;;;;50.88;9.25;;;;;;;24.69;62.56;99690.98;1710520;82;20968;-62
2021/06/24 03:47:45;;;;;;;52.98;10.05;;;;;;;24.86;62.40;99689.73;1737396;82;21039;-62
2021/06/24 03:50:12;;;;;;;62.95;11.00;;;;;;;25.08;62.00;99691.16;1736487;82;21533;-63
2021/06/24 03:52:42;;;;;;;53.80;9.25;;;;;;;25.31;61.09;99693.97;1734043;81;21086;-62
2021/06/24 03:55:11;;;;;;;52.48;10.38;;;;;;;25.51;60.82;99694.15;1746820;82;21493;-61
2021/06/24 03:57:38;;;;;;;45.67;10.18;;;;;;;25.77;59.50;99693.97;1750097;82;21065;-62
2021/06/24 04:00:08;;;;;;;41.53;9.48;;;;;;;25.77;59.50;99693.97;1739545;82;20967;-63
2021/06/24 04:02:36;;;;;;;47.03;9.30;;;;;;;25.86;59.12;99693.14;1746943;82;21070;-63
2021/06/24 04:05:04;;;;;;;50.23;9.48;;;;;;;25.90;58.92;99691.99;1739450;82;20975;-63
2021/06/24 04:07:33;;;;;;;55.12;10.88;;;;;;;25.97;58.25;99682.95;1704761;82;21622;-65
2021/06/24 04:09:59;;;;;;;64.53;9.98;;;;;;;26.04;58.52;99684.45;1735235;82;20967;-64
2021/06/24 04:12:26;;;;;;;53.65;10.25;;;;;;;26.04;58.52;99684.45;1747923;81;21569;-64
2021/06/24 04:15:06;;;;;;;46.13;9.00;;;;;;;26.06;57.83;99684.28;1743235;82;21007;-64
2021/06/24 04:17:34;;;;;;;48.55;8.70;;;;;;;26.10;58.03;99682.36;1737694;82;21340;-65
2021/06/24 04:20:03;;;;;;;46.48;8.80;;;;;;;26.18;57.12;99687.48;1660259;85;21525;-65
2021/06/24 04:22:31;;;;;;;54.75;9.73;;;;;;;26.22;56.40;99696.67;1724605;82;21138;-64
2021/06/24 04:25:17;;;;;;;44.85;8.75;;;;;;;26.27;56.35;99692.77;1753031;82;20999;-62
2021/06/24 04:27:45;;;;;;;44.67;9.63;;;;;;;26.32;56.06;99696.05;1752388;82;21541;-64
2021/06/24 04:30:14;;;;;;;53.65;10.15;;;;;;;26.41;55.86;99697.95;1746007;82;20960;-64
2021/06/24 04:32:42;;;;;;;44.53;9.63;;;;;;;26.52;55.56;99705.07;1723245;83;21070;-64
2021/06/24 04:38:05;;;;;;;54.30;9.75;;;;;;;26.79;55.49;99710.80;1788220;79;22790;-62
2021/06/24 04:40:32;;;;;;;42.15;9.03;;;;;;;26.91;54.28;99715.36;1752855;82;21023;-62
2021/06/24 04:42:59;;;;;;;45.43;9.68;;;;;;;26.91;54.62;99716.16;1752529;82;21046;-63
2021/06/24 04:45:27;;;;;;;48.90;9.28;;;;;;;26.87;55.18;99723.70;1749816;82;21015;-63
2021/06/24 04:48:06;;;;;;;49.95;9.43;;;;;;;26.83;54.44;99716.45;1729316;82;21998;-63
2021/06/24 04:50:33;;;;;;;49.10;9.90;;;;;;;26.72;55.70;99718.50;1673460;85;21074;-63
2021/06/24 04:53:00;;;;;;;46.55;9.00;;;;;;;26.71;56.66;99718.89;1716773;83;21010;-63
2021/06/24 04:55:41;;;;;;;46.35;9.25;;;;;;;26.72;56.75;99722.69;1692418;83;21018;-62
2021/06/24 04:58:19;;;;;;;35.92;8.35;;;;;;;26.76;57.13;99718.53;1707192;82;21591;-62
2021/06/24 05:00:53;;;;;;;43.13;8.55;;;;;;;26.82;56.60;99707.27;1690309;84;21027;-65
2021/06/24 05:03:28;;;;;;;34.92;7.90;;;;;;;26.96;56.42;99706.03;1684399;84;21074;-63
2021/06/24 05:05:58;;;;;;;37.48;8.18;;;;;;;27.10;54.15;99709.60;1700358;84;21047;-63
2021/06/24 05:08:28;;;;;;;41.02;7.95;;;;;;;27.16;53.24;99711.66;1683094;85;21676;-63
2021/06/24 05:10:54;;;;;;;41.25;7.95;;;;;;;27.26;52.87;99713.54;1678258;85;21465;-64
2021/06/24 05:13:21;;;;;;;41.95;8.30;;;;;;;27.33;52.93;99705.23;1683326;85;21058;-63
2021/06/24 05:15:49;;;;;;;37.55;7.42;;;;;;;27.37;52.27;99704.67;1650746;87;21524;-65
2021/06/24 05:18:16;;;;;;;38.50;8.30;;;;;;;27.31;52.83;99704.23;1678285;85;21103;-65
2021/06/24 05:20:45;;;;;;;38.15;8.15;;;;;;;27.26;52.98;99700.96;1678671;85;21035;-63
2021/06/24 05:23:14;;;;;;;42.83;7.87;;;;;;;27.21;52.80;99704.91;1678612;85;21507;-64
2021/06/24 05:25:42;;;;;;;44.83;7.80;;;;;;;27.10;52.81;99700.59;1684045;85;20986;-63
2021/06/24 05:28:09;;;;;;;37.03;7.80;;;;;;;27.04;53.04;99707.73;1650528;87;21104;-65
2021/06/24 05:30:35;;;;;;;42.08;8.55;;;;;;;27.02;53.11;99715.70;1678475;85;21050;-66
2021/06/24 05:33:02;;;;;;;35.63;7.58;;;;;;;26.97;53.05;99714.62;1678248;85;21067;-65
2021/06/24 05:35:29;;;;;;;43.05;8.38;;;;;;;26.91;52.84;99714.77;1678912;85;21645;-63
2021/06/24 05:37:56;;;;;;;36.75;8.10;;;;;;;26.86;52.82;99710.09;1673917;84;21606;-66
2021/06/24 05:40:22;;;;;;;35.20;7.90;;;;;;;26.83;53.34;99712.27;1710388;84;20988;-66
2021/06/24 05:42:49;;;;;;;47.30;8.28;;;;;;;26.81;53.18;99717.41;1710061;84;21059;-67
2021/06/24 05:45:16;;;;;;;36.10;7.92;;;;;;;26.83;53.08;99715.86;1664492;86;21542;-68
2021/06/24 05:47:43;;;;;;;38.78;8.63;;;;;;;26.82;53.30;99719.83;1709935;84;21119;-71
2021/06/24 05:50:10;;;;;;;44.18;7.40;;;;;;;26.83;54.01;99721.45;1722637;82;21003;-70
2021/06/24 05:52:37;;;;;;;44.90;8.35;;;;;;;26.91;54.01;99718.15;1718287;82;21064;-67
2021/06/24 05:55:06;;;;;;;47.48;8.15;;;;;;;27.00;53.74;99721.44;1738983;82;21507;-64
2021/06/24 05:57:32;;;;;;;39.05;8.20;;;;;;;27.07;53.01;99720.92;1716202;82;21036;-63
2021/06/24 05:59:59;;;;;;;44.73;9.45;;;;;;;27.19;53.10;99720.67;1739190;82;21449;-66
2021/06/24 06:02:26;;;;;;;32.15;7.75;;;;;;;27.32;53.15;99720.38;1738893;82;21582;-65
2021/06/24 06:04:52;;;;;;;31.80;7.12;;;;;;;27.38;52.68;99716.07;1737828;82;21083;-63
2021/06/24 06:07:19;;;;;;;36.08;7.95;;;;;;;27.42;52.85;99713.50;1725204;82;21094;-62
2021/06/24 06:09:45;;;;;;;34.85;7.15;;;;;;;27.45;52.99;99716.98;1709656;84;21105;-64
2021/06/24 06:12:12;;;;;;;42.08;8.03;;;;;;;27.51;53.17;99708.44;1727979;82;21056;-68
2021/06/24 06:14:38;;;;;;;33.25;6.83;;;;;;;27.59;52.83;99712.11;1695000;84;21047;-66
2021/06/24 06:17:05;;;;;;;39.90;8.80;;;;;;;27.65;53.38;99717.54;1709768;83;21096;-64
2021/06/24 06:19:31;;;;;;;42.62;7.08;;;;;;;27.73;52.62;99713.63;1709871;84;21011;-66
2021/06/24 06:21:57;;;;;;;37.10;7.45;;;;;;;27.77;52.48;99715.86;1709785;84;21082;-62
2021/06/24 06:24:23;;;;;;;41.42;7.92;;;;;;;27.83;52.44;99712.90;1736551;82;21000;-63
2021/06/24 06:26:51;;;;;;;51.73;7.78;;;;;;;27.90;52.57;99712.14;1738946;82;21095;-66
2021/06/24 06:29:17;;;;;;;27.73;6.67;;;;;;;27.96;53.40;99709.19;1720673;82;21508;-64
2021/06/24 06:31:44;;;;;;;42.08;8.20;;;;;;;27.99;52.65;99709.21;1733675;82;21019;-62
2021/06/24 06:34:10;;;;;;;42.20;7.47;;;;;;;27.97;52.79;99703.80;1739158;82;21545;-63
2021/06/24 06:36:37;;;;;;;36.28;7.22;;;;;;;27.92;52.50;99695.77;1722349;82;21060;-63
2021/06/24 06:39:04;;;;;;;35.33;7.80;;;;;;;27.90;51.46;99698.16;1731621;82;21104;-64
2021/06/24 06:41:32;;;;;;;31.77;7.25;;;;;;;27.84;51.63;99700.53;1734581;82;21028;-65
2021/06/24 06:43:58;;;;;;;39.33;8.13;;;;;;;27.90;52.58;99699.56;1730341;82;21133;-63
2021/06/24 06:46:25;;;;;;;28.70;7.15;;;;;;;27.98;52.04;99701.22;1657997;86;21076;-65
2021/06/24 06:48:52;;;;;;;35.65;6.92;;;;;;;28.06;52.91;99687.47;1717875;82;20999;-64
2021/06/24 06:51:22;;;;;;;37.03;6.78;;;;;;;28.17;52.32;99692.57;1739163;82;20983;-62
2021/06/24 06:53:47;;;;;;;33.88;8.23;;;;;;;28.33;51.51;99689.48;1738594;82;21019;-63
2021/06/24 06:56:14;;;;;;;34.20;7.75;;;;;;;28.49;50.74;99678.75;1702544;83;20992;-62
2021/06/24 06:58:40;;;;;;;32.98;6.58;;;;;;;28.70;51.57;99680.27;1735468;82;21590;-61
2021/06/24 07:01:07;;;;;;;32.38;7.22;;;;;;;28.93;50.93;99693.37;1731250;82;21520;-63
2021/06/24 07:03:33;;;;;;;26.70;6.33;;;;;;;29.13;51.20;99691.81;1689187;84;21062;-64
2021/06/24 07:06:01;;;;;;;33.63;6.83;;;;;;;29.25;50.84;99690.64;1717263;82;21035;-64
2021/06/24 07:08:27;;;;;;;33.13;7.03;;;;;;;29.34;49.82;99691.66;1725395;82;21468;-62
2021/06/24 07:10:55;;;;;;;27.87;6.53;;;;;;;29.40;49.11;99692.89;1739135;82;21028;-62
2021/06/24 07:13:21;;;;;;;27.13;6.33;;;;;;;29.48;49.54;99697.28;1712574;82;21052;-65
2021/06/24 07:15:50;;;;;;;28.90;7.30;;;;;;;29.53;49.28;99693.50;1710712;82;20987;-65
2021/06/24 07:18:16;;;;;;;34.92;6.50;;;;;;;29.57;49.19;99704.13;1734702;82;21554;-65
2021/06/24 07:20:43;;;;;;;28.60;6.47;;;;;;;29.71;49.18;99704.72;1738941;82;21047;-64
2021/06/24 07:23:10;;;;;;;35.50;6.95;;;;;;;29.88;49.46;99701.14;1739021;82;21099;-62
2021/06/24 07:25:36;;;;;;;28.73;7.15;;;;;;;30.10;47.30;99703.31;1711576;82;21090;-65
2021/06/24 07:28:04;;;;;;;27.67;7.08;;;;;;;30.19;46.47;99704.28;1734738;81;21039;-64
2021/06/24 07:30:30;;;;;;;25.40;5.53;;;;;;;30.26;45.53;99699.45;1738256;82;20988;-67
2021/06/24 07:32:57;;;;;;;30.85;6.83;;;;;;;30.35;46.43;99704.67;1712759;82;21087;-64
2021/06/24 07:35:23;;;;;;;30.85;6.37;;;;;;;30.40;45.85;99711.25;1736996;82;21055;-64
2021/06/24 07:37:50;;;;;;;26.00;6.17;;;;;;;30.45;45.31;99705.27;1726728;81;21122;-64
2021/06/24 07:40:17;;;;;;;32.35;6.35;;;;;;;30.64;46.07;99717.45;1689733;83;21038;-64
2021/06/24 07:42:44;;;;;;;26.57;5.95;;;;;;;30.91;43.99;99717.73;1756147;81;21054;-65
2021/06/24 07:45:12;;;;;;;33.38;7.35;;;;;;;31.17;42.79;99714.41;1760927;81;21050;-64
2021/06/24 07:47:38;;;;;;;23.90;5.80;;;;;;;31.39;42.93;99716.48;1732589;81;21066;-63
2021/06/24 07:50:05;;;;;;;34.50;6.58;;;;;;;31.65;42.35;99717.91;1730790;83;21023;-63
2021/06/24 07:52:32;;;;;;;33.05;6.92;;;;;;;31.84;41.13;99709.73;1666533;84;21027;-62
2021/06/24 07:54:58;;;;;;;34.70;7.30;;;;;;;31.97;41.59;99712.21;1662765;86;21001;-62
2021/06/24 07:57:25;;;;;;;36.35;6.83;;;;;;;31.96;39.83;99716.84;1678678;84;21034;-60
2021/06/24 07:59:51;;;;;;;21.62;5.55;;;;;;;31.81;40.61;99721.81;1725027;83;21010;-60
2021/06/24 08:02:17;;;;;;;25.10;6.40;;;;;;;31.72;41.16;99721.48;1695892;84;21124;-61
2021/06/24 08:04:44;;;;;;;33.13;6.80;;;;;;;31.70;42.06;99734.37;1688688;84;20984;-62
2021/06/24 08:07:11;;;;;;;28.70;5.95;;;;;;;31.69;41.43;99722.31;1701483;84;21046;-63
2021/06/24 08:09:39;;;;;;;29.35;5.90;;;;;;;31.65;41.37;99737.01;1687590;84;21459;-62
2021/06/24 08:12:06;;;;;;;32.73;6.22;;;;;;;31.62;41.75;99733.62;1673521;85;21079;-62
2021/06/24 08:14:33;;;;;;;31.75;7.08;;;;;;;31.68;42.42;99724.12;1673626;85;20999;-64
2021/06/24 08:17:00;;;;;;;28.15;6.37;;;;;;;31.76;42.77;99729.29;1673508;86;21051;-64
2021/06/24 08:19:26;;;;;;;29.77;6.87;;;;;;;31.89;42.35;99724.74;1673333;86;21087;-64
2021/06/24 08:21:58;;;;;;;30.57;6.17;;;;;;;32.04;41.41;99724.81;1673100;86;21086;-61
2021/06/24 08:24:21;;;;;;;24.05;5.65;;;;;;;32.22;41.27;99726.69;1672795;86;21546;-62
2021/06/24 08:26:49;;;;;;;29.27;6.10;;;;;;;32.33;41.31;99727.37;1673146;86;21075;-62
2021/06/24 08:29:15;;;;;;;26.87;5.92;;;;;;;32.36;41.16;99724.52;1673298;86;21560;-60
2021/06/24 08:31:42;;;;;;;26.55;5.58;;;;;;;32.45;40.43;99717.77;1673263;86;21063;-60
2021/06/24 08:34:09;;;;;;;25.55;5.25;;;;;;;32.54;40.77;99715.88;1673704;86;21094;-61
2021/06/24 08:36:35;;;;;;;31.17;6.87;;;;;;;32.65;40.28;99720.00;1673718;86;21055;-61
2021/06/24 08:39:02;;;;;;;31.65;6.15;;;;;;;32.76;40.27;99712.22;1644345;86;21126;-62
2021/06/24 08:41:28;;;;;;;26.30;6.15;;;;;;;32.88;39.77;99717.28;1673463;84;21098;-61
2021/06/24 08:43:54;;;;;;;32.85;5.83;;;;;;;32.99;37.92;99714.52;1672859;86;21596;-61
2021/06/24 08:46:26;;;;;;;27.65;6.20;;;;;;;33.02;39.68;99716.48;1689631;84;21003;-61
2021/06/24 08:48:52;;;;;;;27.13;5.35;;;;;;;33.10;39.86;99714.98;1700909;84;21110;-62
2021/06/24 08:51:19;;;;;;;24.32;5.55;;;;;;;33.19;39.54;99721.75;1671611;84;21023;-61
2021/06/24 08:53:48;;;;;;;29.72;5.72;;;;;;;33.32;39.63;99722.75;1701002;84;21466;-60
2021/06/24 08:56:16;;;;;;;30.02;5.97;;;;;;;33.47;39.29;99715.67;1701168;84;21076;-60
2021/06/24 08:58:44;;;;;;;30.57;6.25;;;;;;;33.49;39.50;99715.23;1701040;84;21070;-60
2021/06/24 09:01:10;;;;;;;27.15;6.05;;;;;;;33.49;39.56;99716.64;1701345;84;21024;-61
2021/06/24 09:03:41;;;;;;;28.83;5.72;;;;;;;33.59;39.33;99714.88;1672327;84;21086;-62
2021/06/24 09:06:09;;;;;;;25.55;4.83;;;;;;;33.62;37.55;99712.05;1701407;84;20975;-62
2021/06/24 09:08:46;;;;;;;19.10;4.67;;;;;;;33.73;39.10;99704.82;1701068;84;21561;-62
2021/06/24 09:11:24;;;;;;;25.15;5.72;;;;;;;33.97;37.15;99706.41;1701394;84;20987;-61
2021/06/24 09:14:10;;;;;;;23.73;5.72;;;;;;;34.08;36.72;99710.45;1692636;83;21115;-62
2021/06/24 09:16:40;;;;;;;20.97;4.87;;;;;;;34.15;35.14;99706.13;1672723;86;21055;-62
2021/06/24 09:19:21;;;;;;;25.27;5.37;;;;;;;34.18;35.70;99702.43;1679854;84;21043;-63
2021/06/24 09:22:07;;;;;;;25.92;5.35;;;;;;;34.07;35.98;99696.95;1719954;83;20980;-61
2021/06/24 09:24:37;;;;;;;32.40;5.95;;;;;;;34.05;37.07;99697.20;1734917;82;21537;-61
2021/06/24 09:27:08;;;;;;;22.60;4.83;;;;;;;34.18;37.37;99699.61;1749453;82;21051;-62
2021/06/24 09:29:35;;;;;;;18.55;4.35;;;;;;;34.28;35.61;99702.84;1737108;82;21296;-61
2021/06/24 09:32:03;;;;;;;30.43;5.58;;;;;;;34.33;35.76;99698.11;1732697;82;21056;-62
2021/06/24 09:34:30;;;;;;;23.75;3.67;;;;;;;34.42;36.49;99696.91;1720875;82;20991;-62
2021/06/24 09:37:03;;;;;;;19.25;3.87;;;;;;;34.48;34.25;99694.55;1735001;82;21027;-63
2021/06/24 09:39:37;;;;;;;20.23;4.15;;;;;;;34.35;34.68;99690.79;1760963;81;21078;-62
2021/06/24 09:42:08;;;;;;;17.95;3.75;;;;;;;34.22;34.59;99697.52;1761021;81;21730;-63
2021/06/24 09:44:43;;;;;;;16.80;4.12;;;;;;;34.04;34.67;99694.98;1761197;81;21007;-63
2021/06/24 09:47:26;;;;;;;16.70;3.52;;;;;;;33.84;35.67;99695.53;1761125;81;21533;-64
2021/06/24 09:50:06;;;;;;;17.17;3.70;;;;;;;33.67;36.43;99698.05;1760960;81;21043;-62
2021/06/24 09:52:33;;;;;;;18.87;3.65;;;;;;;33.45;37.71;99701.79;1761102;81;21035;-62
2021/06/24 09:55:13;;;;;;;18.23;4.28;;;;;;;33.26;38.16;99696.86;1761224;81;21059;-62
2021/06/24 09:57:40;;;;;;;18.55;4.12;;;;;;;33.13;37.23;99692.39;1761038;81;21113;-63
2021/06/24 10:00:25;;;;;;;20.82;4.05;;;;;;;33.05;38.74;99697.30;1761108;81;20982;-65
2021/06/24 10:03:12;;;;;;;13.90;3.45;;;;;;;32.93;39.35;99693.66;1761077;81;21054;-62
2021/06/24 10:05:40;;;;;;;22.15;4.15;;;;;;;32.86;39.67;99692.95;1734751;81;21007;-63
2021/06/24 10:08:06;;;;;;;17.82;4.08;;;;;;;32.80;39.60;99692.64;1725803;81;21051;-63
2021/06/24 10:10:34;;;;;;;18.05;3.47;;;;;;;32.75;40.97;99690.88;1760432;81;21062;-63
2021/06/24 10:13:00;;;;;;;20.10;3.67;;;;;;;32.78;41.07;99690.03;1746353;81;21026;-63
2021/06/24 10:15:31;;;;;;;17.32;3.92;;;;;;;32.77;41.06;99692.69;1696168;84;20999;-62
2021/06/24 10:17:58;;;;;;;17.77;3.75;;;;;;;32.69;41.05;99689.16;1700707;83;21118;-63
2021/06/24 10:20:27;;;;;;;19.35;4.92;;;;;;;32.62;42.31;99686.43;1722996;83;20970;-62
2021/06/24 10:23:15;;;;;;;19.80;4.03;;;;;;;32.60;43.23;99686.03;1695701;84;21641;-62
2021/06/24 10:25:42;;;;;;;26.33;4.95;;;;;;;32.62;42.94;99685.02;1696063;84;20990;-63
2021/06/24 10:28:09;;;;;;;22.00;4.90;;;;;;;32.71;41.75;99687.31;1664756;85;21139;-63
2021/06/24 10:30:41;;;;;;;22.80;4.85;;;;;;;32.88;39.81;99682.05;1706443;84;21043;-63
2021/06/24 10:33:20;;;;;;;19.45;4.25;;;;;;;33.03;39.77;99676.41;1706432;84;21465;-62
2021/06/24 10:35:49;;;;;;;20.75;3.77;;;;;;;33.18;39.06;99674.20;1723870;83;21054;-62
2021/06/24 10:38:17;;;;;;;24.40;4.75;;;;;;;33.28;38.88;99673.25;1690765;84;21066;-61
2021/06/24 10:40:45;;;;;;;25.72;4.33;;;;;;;33.48;38.91;99667.88;1747474;82;21479;-61
2021/06/24 10:43:15;;;;;;;22.82;3.67;;;;;;;33.61;38.22;99667.28;1747198;82;21066;-62
2021/06/24 10:45:44;;;;;;;20.00;4.10;;;;;;;33.57;38.33;99667.95;1746967;82;21046;-61
2021/06/24 10:48:29;;;;;;;22.80;4.42;;;;;;;33.50;37.77;99667.45;1747190;82;21075;-63
2021/06/24 10:51:05;;;;;;;21.27;4.53;;;;;;;33.43;37.61;99668.38;1747525;82;21067;-62
2021/06/24 10:53:42;;;;;;;18.42;4.53;;;;;;;33.43;38.55;99664.75;1747265;82;21530;-61
2021/06/24 10:56:43;;;;;;;19.73;4.20;;;;;;;33.46;38.03;99659.66;1747438;82;21035;-62
2021/06/24 10:59:28;;;;;;;20.43;4.20;;;;;;;33.61;37.97;99656.80;1715336;82;21098;-62
2021/06/24 11:02:06;;;;;;;25.77;4.40;;;;;;;33.71;37.27;99658.66;1747192;82;21043;-62
2021/06/24 11:04:37;;;;;;;20.55;4.50;;;;;;;33.67;37.38;99660.74;1747145;82;21075;-62
2021/06/24 11:07:19;;;;;;;23.87;5.33;;;;;;;33.71;37.74;99657.25;1747401;82;21537;-63
2021/06/24 11:10:19;;;;;;;22.65;5.20;;;;;;;33.87;38.93;99655.94;1747198;82;21617;-61
2021/06/24 11:13:00;;;;;;;27.45;5.70;;;;;;;34.03;38.08;99653.84;1718799;82;21047;-61
2021/06/24 11:15:48;;;;;;;20.23;4.03;;;;;;;34.12;37.63;99649.05;1747307;82;21506;-62
2021/06/24 11:18:37;;;;;;;22.85;5.47;;;;;;;34.19;37.10;99647.53;1747452;82;21628;-64
2021/06/24 11:21:06;;;;;;;16.37;4.17;;;;;;;34.31;37.02;99644.05;1747495;82;20980;-62
2021/06/24 11:23:52;;;;;;;17.80;4.12;;;;;;;34.38;37.45;99641.08;1747403;82;21095;-61
2021/06/24 11:26:28;;;;;;;19.65;4.75;;;;;;;34.44;35.90;99633.68;1747416;82;20992;-62
2021/06/24 11:29:09;;;;;;;18.35;4.47;;;;;;;34.57;36.85;99640.29;1747263;82;21047;-61
2021/06/24 11:32:49;;;;;;;22.40;5.35;;;;;;;34.72;35.92;99630.27;1747709;82;21031;-62
2021/06/24 11:34:42;;;;;;;25.57;4.78;;;;;;;34.81;35.54;99633.94;1722131;82;21066;-63
2021/06/24 11:37:11;;;;;;;26.50;5.17;;;;;;;34.69;36.37;99634.59;1746930;82;21534;-62
2021/06/24 11:39:40;;;;;;;23.70;4.62;;;;;;;34.57;36.42;99631.01;1719760;81;21058;-62